createdAt,value
2018-11-03T00:00:19.860Z,5.10
2018-11-03T00:02:51.879Z,5.25
2018-11-03T00:05:23.911Z,6.30
2018-11-03T00:07:55.991Z,6.10
2018-11-03T00:10:28.002Z,5.03
2018-11-03T00:13:00.022Z,4.77
2018-11-03T00:15:32.116Z,5.75
2018-11-03T00:18:04.530Z,5.13
2018-11-03T00:20:36.899Z,4.62
2018-11-03T00:23:09.080Z,6.03
2018-11-03T00:25:41.116Z,4.75
2018-11-03T00:28:13.154Z,5.90
2018-11-03T00:30:45.145Z,5.20
2018-11-03T00:33:17.127Z,5.15
2018-11-03T00:35:49.100Z,5.22
2018-11-03T00:38:21.122Z,4.60
2018-11-03T00:40:53.111Z,6.20
2018-11-03T00:43:25.124Z,5.75
2018-11-03T00:45:57.178Z,5.67
2018-11-03T00:48:29.186Z,5.50
2018-11-03T00:51:01.207Z,5.60
2018-11-03T00:53:33.203Z,5.87
2018-11-03T00:56:05.215Z,5.72
2018-11-03T00:58:37.247Z,6.00
2018-11-03T01:01:09.183Z,4.93
2018-11-03T01:03:41.200Z,5.87
2018-11-03T01:06:13.197Z,6.03
2018-11-03T01:08:45.199Z,5.72
2018-11-03T01:11:17.212Z,6.75
2018-11-03T01:13:49.407Z,5.95
2018-11-03T01:16:21.493Z,5.37
2018-11-03T01:18:53.492Z,6.00
2018-11-03T01:21:25.579Z,5.50
2018-11-03T01:23:57.588Z,4.95
2018-11-03T01:26:29.578Z,5.65
2018-11-03T01:29:01.598Z,5.65
2018-11-03T01:31:33.576Z,4.90
2018-11-03T01:34:05.620Z,5.58
2018-11-03T01:36:37.688Z,5.90
2018-11-03T01:39:10.931Z,5.53
2018-11-03T01:41:42.926Z,5.40
2018-11-03T01:44:14.935Z,5.67
2018-11-03T01:46:46.947Z,5.45
2018-11-03T01:49:18.936Z,5.83
2018-11-03T01:51:50.935Z,6.25
2018-11-03T01:54:23.367Z,5.70
2018-11-03T01:56:55.440Z,5.72
2018-11-03T01:59:27.495Z,5.40
2018-11-03T02:01:59.467Z,5.75
2018-11-03T02:04:31.700Z,5.17
2018-11-03T02:07:03.937Z,5.57
2018-11-03T02:09:35.946Z,5.53
2018-11-03T02:12:07.991Z,5.50
2018-11-03T02:14:39.958Z,5.25
2018-11-03T02:17:11.978Z,4.60
2018-11-03T02:19:44.011Z,5.93
2018-11-03T02:22:16.011Z,5.50
2018-11-03T02:24:48.041Z,5.20
2018-11-03T02:27:20.002Z,5.13
2018-11-03T02:29:52.007Z,5.70
2018-11-03T02:32:23.965Z,5.17
2018-11-03T02:34:55.982Z,5.00
2018-11-03T02:37:28.011Z,5.83
2018-11-03T02:40:00.029Z,5.20
2018-11-03T02:42:32.010Z,5.10
2018-11-03T02:45:05.431Z,5.37
2018-11-03T02:47:37.570Z,6.30
2018-11-03T02:50:11.420Z,6.10
2018-11-03T02:52:43.476Z,5.40
2018-11-03T02:55:15.488Z,5.80
2018-11-03T02:57:47.568Z,6.10
2018-11-03T03:00:19.588Z,5.70
2018-11-03T03:02:51.604Z,6.20
2018-11-03T03:05:23.702Z,7.10
2018-11-03T03:07:55.775Z,6.87
2018-11-03T03:10:27.823Z,7.13
2018-11-03T03:12:59.823Z,6.77
2018-11-03T03:15:31.837Z,6.95
2018-11-03T03:18:03.862Z,6.70
2018-11-03T03:20:35.901Z,7.37
2018-11-03T03:23:07.891Z,7.10
2018-11-03T03:25:39.859Z,7.17
2018-11-03T03:28:11.940Z,7.00
2018-11-03T03:30:43.987Z,7.70
2018-11-03T03:33:15.974Z,7.27
2018-11-03T03:35:47.994Z,8.70
2018-11-03T03:38:20.000Z,7.80
2018-11-03T03:40:52.000Z,7.17
2018-11-03T03:43:24.191Z,7.97
2018-11-03T03:45:56.211Z,8.13
2018-11-03T03:48:28.239Z,8.10
2018-11-03T03:51:00.272Z,7.35
2018-11-03T03:53:32.285Z,8.47
2018-11-03T03:56:04.341Z,8.03
2018-11-03T03:58:36.369Z,8.20
2018-11-03T04:01:08.367Z,8.18
2018-11-03T04:03:40.416Z,8.70
2018-11-03T04:06:12.494Z,7.42
2018-11-03T04:08:44.550Z,7.80
2018-11-03T04:11:16.675Z,7.62
2018-11-03T04:13:48.823Z,8.00
2018-11-03T04:16:20.816Z,7.92
2018-11-03T04:18:52.795Z,8.18
2018-11-03T04:21:28.132Z,8.35
2018-11-03T04:24:00.152Z,8.70
2018-11-03T04:26:32.169Z,8.85
2018-11-03T04:29:04.655Z,8.67
2018-11-03T04:31:36.654Z,8.63
2018-11-03T04:34:08.652Z,8.08
2018-11-03T04:36:40.602Z,9.33
2018-11-03T04:39:12.574Z,9.75
2018-11-03T04:41:44.559Z,9.10
2018-11-03T04:44:16.634Z,9.90
2018-11-03T04:46:48.654Z,10.23
2018-11-03T04:49:20.651Z,10.72
2018-11-03T04:51:52.644Z,11.00
2018-11-03T04:54:24.607Z,10.30
2018-11-03T04:56:56.619Z,10.50
2018-11-03T04:59:28.607Z,10.32
2018-11-03T05:02:00.601Z,11.70
2018-11-03T05:04:32.578Z,9.47
2018-11-03T05:07:04.755Z,9.83
2018-11-03T05:09:36.798Z,10.80
2018-11-03T05:12:08.775Z,10.00
2018-11-03T05:14:40.775Z,11.03
2018-11-03T05:17:12.739Z,10.63
2018-11-03T05:19:44.706Z,9.35
2018-11-03T05:22:16.671Z,10.05
2018-11-03T05:24:48.690Z,10.15
2018-11-03T05:27:20.687Z,9.73
2018-11-03T05:29:52.698Z,8.88
2018-11-03T05:32:24.818Z,9.68
2018-11-03T05:34:56.824Z,10.20
2018-11-03T05:37:28.768Z,10.05
2018-11-03T05:40:00.799Z,10.00
2018-11-03T05:42:32.884Z,10.05
2018-11-03T05:45:04.894Z,10.20
2018-11-03T05:47:36.927Z,9.60
2018-11-03T05:50:10.040Z,10.03
2018-11-03T05:52:42.422Z,9.63
2018-11-03T05:55:14.441Z,8.53
2018-11-03T05:57:46.405Z,8.80
2018-11-03T06:00:18.412Z,9.00
2018-11-03T06:02:50.393Z,8.20
2018-11-03T06:05:22.658Z,8.65
2018-11-03T06:07:55.124Z,8.33
2018-11-03T06:10:27.166Z,7.60
2018-11-03T06:12:59.278Z,9.53
2018-11-03T06:15:31.615Z,8.75
2018-11-03T06:18:04.384Z,8.48
2018-11-03T06:20:36.704Z,7.50
2018-11-03T06:23:09.077Z,8.65
2018-11-03T06:25:41.240Z,7.85
2018-11-03T06:28:14.410Z,8.60
2018-11-03T06:30:46.334Z,8.68
2018-11-03T06:33:18.313Z,8.10
2018-11-03T06:35:50.487Z,8.28
2018-11-03T06:38:23.117Z,8.00
2018-11-03T06:40:55.162Z,8.13
2018-11-03T06:43:27.186Z,7.95
2018-11-03T06:45:59.214Z,7.53
2018-11-03T06:48:31.199Z,8.35
2018-11-03T06:51:03.214Z,7.67
2018-11-03T06:53:35.202Z,7.53
2018-11-03T06:56:07.482Z,7.65
2018-11-03T06:58:39.782Z,7.83
2018-11-03T07:01:12.220Z,7.90
2018-11-03T07:03:44.227Z,7.70
2018-11-03T07:06:16.348Z,8.70
2018-11-03T07:08:48.661Z,7.60
2018-11-03T07:11:21.052Z,8.97
2018-11-03T07:13:53.542Z,7.85
2018-11-03T07:16:25.885Z,8.48
2018-11-03T07:18:58.160Z,8.68
2018-11-03T07:21:30.525Z,7.80
2018-11-03T07:24:02.778Z,7.70
2018-11-03T07:26:34.977Z,8.10
2018-11-03T07:29:07.400Z,8.43
2018-11-03T07:31:39.672Z,8.93
2018-11-03T07:34:12.597Z,8.98
2018-11-03T07:36:44.859Z,9.40
2018-11-03T07:39:17.169Z,8.60
2018-11-03T07:41:49.436Z,8.53
2018-11-03T07:44:21.672Z,8.90
2018-11-03T07:46:53.898Z,8.50
2018-11-03T07:49:26.379Z,8.93
2018-11-03T07:51:58.500Z,8.23
2018-11-03T07:54:30.829Z,7.80
2018-11-03T07:57:02.979Z,8.50
2018-11-03T07:59:35.251Z,8.73
2018-11-03T08:02:07.913Z,8.20
2018-11-03T08:04:40.295Z,8.10
2018-11-03T08:07:12.543Z,8.77
2018-11-03T08:09:44.780Z,8.90
2018-11-03T08:12:17.187Z,9.00
2018-11-03T08:14:49.418Z,9.40
2018-11-03T08:17:21.673Z,8.20
2018-11-03T08:19:54.049Z,8.10
2018-11-03T08:22:26.320Z,8.50
2018-11-03T08:24:58.581Z,8.43
2018-11-03T08:27:30.889Z,8.43
2018-11-03T08:30:03.456Z,8.37
2018-11-03T08:32:35.754Z,8.33
2018-11-03T08:35:08.869Z,8.50
2018-11-03T08:37:41.114Z,9.80
2018-11-03T08:40:13.338Z,8.63
2018-11-03T08:42:45.680Z,9.30
2018-11-03T08:45:17.855Z,9.80
2018-11-03T08:47:50.175Z,8.77
2018-11-03T08:50:22.429Z,10.03
2018-11-03T08:52:54.672Z,10.23
2018-11-03T08:55:26.908Z,9.77
2018-11-03T08:57:59.182Z,9.80
2018-11-03T09:00:31.535Z,10.03
2018-11-03T09:03:03.804Z,10.00
2018-11-03T09:05:36.110Z,9.80
2018-11-03T09:08:08.408Z,8.37
2018-11-03T09:10:40.681Z,10.20
2018-11-03T09:13:13.024Z,9.97
2018-11-03T09:15:45.296Z,8.30
2018-11-03T09:18:17.562Z,9.67
2018-11-03T09:20:49.833Z,9.83
2018-11-03T09:23:22.100Z,8.20
2018-11-03T09:25:54.403Z,8.30
2018-11-03T09:28:26.597Z,7.70
2018-11-03T09:30:58.808Z,7.77
2018-11-03T09:33:31.090Z,8.10
2018-11-03T09:36:03.341Z,8.00
2018-11-03T09:38:35.717Z,7.20
2018-11-03T09:41:07.948Z,7.20
2018-11-03T09:43:40.334Z,7.50
2018-11-03T09:46:12.639Z,6.90
2018-11-03T09:48:44.885Z,6.97
2018-11-03T09:51:17.195Z,7.23
2018-11-03T09:53:49.430Z,7.70
2018-11-03T09:56:22.041Z,8.03
2018-11-03T09:58:54.361Z,7.27
2018-11-03T10:01:26.604Z,8.10
2018-11-03T10:03:58.870Z,6.53
2018-11-03T10:06:31.229Z,7.70
2018-11-03T10:09:04.462Z,8.70
2018-11-03T10:11:36.677Z,8.47
2018-11-03T10:14:09.027Z,7.93
2018-11-03T10:16:41.446Z,7.97
2018-11-03T10:19:13.783Z,7.67
2018-11-03T10:21:46.053Z,7.83
2018-11-03T10:24:18.265Z,8.17
2018-11-03T10:26:50.654Z,8.77
2018-11-03T10:29:22.920Z,8.10
2018-11-03T10:31:55.250Z,9.17
2018-11-03T10:34:27.582Z,8.70
2018-11-03T10:36:59.839Z,8.53
2018-11-03T10:39:32.192Z,8.10
2018-11-03T10:42:04.521Z,8.07
2018-11-03T10:44:36.807Z,7.50
2018-11-03T10:47:09.068Z,7.80
2018-11-03T10:49:42.773Z,8.07
2018-11-03T10:52:15.072Z,7.77
2018-11-03T10:54:47.459Z,7.13
2018-11-03T10:57:19.829Z,7.90
2018-11-03T10:59:52.133Z,7.40
2018-11-03T11:02:29.999Z,8.73
2018-11-03T11:05:07.965Z,7.17
2018-11-03T11:07:45.976Z,8.07
2018-11-03T11:12:27.352Z,7.97
2018-11-03T11:14:59.549Z,7.50
2018-11-03T11:17:31.872Z,8.40
2018-11-03T11:20:05.174Z,7.67
2018-11-03T11:22:37.519Z,7.20
2018-11-03T11:25:10.890Z,8.07
2018-11-03T11:27:43.036Z,7.20
2018-11-03T11:30:15.220Z,7.43
2018-11-03T11:32:47.583Z,7.50
2018-11-03T11:35:19.894Z,6.67
2018-11-03T11:37:52.239Z,8.33
2018-11-03T11:40:24.482Z,6.87
2018-11-03T11:42:56.942Z,8.30
2018-11-03T11:45:29.200Z,8.17
2018-11-03T11:48:01.491Z,9.73
2018-11-03T11:50:33.812Z,8.43
2018-11-03T11:53:06.182Z,7.97
2018-11-03T11:55:38.462Z,7.80
2018-11-03T11:58:10.902Z,7.80
2018-11-03T12:00:43.207Z,8.20
2018-11-03T12:03:15.590Z,7.07
2018-11-03T12:05:47.956Z,8.17
2018-11-03T12:08:20.356Z,7.60
2018-11-03T12:10:52.684Z,7.53
2018-11-03T12:13:24.967Z,7.83
2018-11-03T12:15:57.315Z,7.37
2018-11-03T12:18:29.689Z,8.10
2018-11-03T12:21:01.990Z,7.63
2018-11-03T12:23:34.280Z,7.87
2018-11-03T12:26:06.681Z,8.50
2018-11-03T12:28:39.012Z,8.67
2018-11-03T12:31:11.285Z,7.53
2018-11-03T12:33:43.697Z,8.10
2018-11-03T12:36:16.072Z,7.63
2018-11-03T12:38:48.546Z,8.40
2018-11-03T12:41:20.855Z,8.23
2018-11-03T12:43:53.083Z,8.47
2018-11-03T12:46:25.341Z,7.70
2018-11-03T12:48:57.714Z,7.80
2018-11-03T12:51:30.193Z,7.87
2018-11-03T12:54:02.739Z,7.43
2018-11-03T12:56:35.059Z,8.30
2018-11-03T12:59:07.606Z,8.50
2018-11-03T13:01:39.797Z,7.40
2018-11-03T13:04:12.191Z,7.50
2018-11-03T13:06:44.472Z,8.00
2018-11-03T13:09:16.746Z,6.40
2018-11-03T13:11:49.122Z,7.43
2018-11-03T13:14:21.492Z,6.87
2018-11-03T13:16:53.759Z,7.80
2018-11-03T13:19:26.088Z,7.97
2018-11-03T13:21:58.349Z,8.60
2018-11-03T13:24:30.831Z,8.30
2018-11-03T13:27:03.190Z,8.57
2018-11-03T13:29:35.427Z,8.77
2018-11-03T13:32:07.707Z,7.63
2018-11-03T13:34:40.101Z,7.90
2018-11-03T13:37:12.457Z,7.47
2018-11-03T13:39:44.808Z,6.87
2018-11-03T13:42:17.123Z,7.30
2018-11-03T13:44:49.351Z,7.87
2018-11-03T13:47:21.627Z,8.23
2018-11-03T13:49:53.892Z,9.57
2018-11-03T13:52:26.164Z,8.80
2018-11-03T13:54:58.448Z,7.97
2018-11-03T13:57:30.664Z,7.87
2018-11-03T14:00:03.314Z,7.20
2018-11-03T14:02:35.560Z,7.60
2018-11-03T14:05:08.191Z,9.03
2018-11-03T14:07:40.438Z,7.80
2018-11-03T14:10:14.686Z,8.20
2018-11-03T14:12:46.844Z,8.17
2018-11-03T14:15:19.248Z,8.30
2018-11-03T14:17:51.490Z,8.53
2018-11-03T14:20:23.796Z,8.37
2018-11-03T14:22:56.104Z,8.67
2018-11-03T14:25:28.371Z,8.03
2018-11-03T14:28:00.623Z,9.10
2018-11-03T14:30:32.815Z,11.43
2018-11-03T14:33:05.560Z,11.83
2018-11-03T14:35:37.758Z,11.53
2018-11-03T14:38:10.105Z,13.13
2018-11-03T14:40:42.378Z,12.30
2018-11-03T14:43:14.626Z,13.10
2018-11-03T14:45:46.867Z,12.10
2018-11-03T14:48:19.354Z,12.63
2018-11-03T14:50:51.749Z,12.53
2018-11-03T14:53:24.052Z,12.70
2018-11-03T14:55:56.373Z,14.03
2018-11-03T14:58:28.736Z,13.50
2018-11-03T15:01:01.036Z,12.87
2018-11-03T15:03:33.403Z,13.30
2018-11-03T15:06:05.783Z,13.53
2018-11-03T15:08:38.193Z,14.43
2018-11-03T15:11:10.557Z,14.10
2018-11-03T15:13:43.011Z,14.57
2018-11-03T15:16:15.287Z,13.93
2018-11-03T15:18:47.675Z,14.13
2018-11-03T15:21:19.918Z,15.00
2018-11-03T15:23:52.217Z,14.50
2018-11-03T15:26:24.453Z,15.63
2018-11-03T15:28:56.843Z,16.30
2018-11-03T15:31:29.093Z,15.50
2018-11-03T15:34:01.406Z,17.73
2018-11-03T15:36:33.777Z,16.67
2018-11-03T15:39:06.292Z,15.97
2018-11-03T15:41:38.595Z,16.67
2018-11-03T15:44:10.896Z,18.50
2018-11-03T15:46:43.394Z,17.70
2018-11-03T15:49:15.695Z,17.57
2018-11-03T15:51:48.007Z,18.10
2018-11-03T15:54:20.419Z,17.80
2018-11-03T15:56:52.747Z,18.00
2018-11-03T15:59:25.143Z,17.30
2018-11-03T16:01:57.461Z,17.97
2018-11-03T16:04:29.733Z,19.40
2018-11-03T16:07:02.033Z,17.53
2018-11-03T16:09:34.319Z,17.67
2018-11-03T16:12:06.801Z,18.90
2018-11-03T16:14:39.009Z,19.30
2018-11-03T16:17:11.356Z,20.53
2018-11-03T16:19:44.566Z,18.50
2018-11-03T16:22:17.042Z,20.87
2018-11-03T16:24:49.515Z,19.50
2018-11-03T16:27:21.779Z,20.80
2018-11-03T16:29:54.081Z,21.43
2018-11-03T16:32:26.503Z,20.80
2018-11-03T16:34:58.719Z,22.20
2018-11-03T16:37:30.987Z,21.90
2018-11-03T16:40:03.414Z,22.30
2018-11-03T16:42:35.875Z,22.87
2018-11-03T16:45:09.557Z,23.47
2018-11-03T16:47:43.278Z,24.20
2018-11-03T16:50:16.342Z,23.13
2018-11-03T16:52:48.824Z,23.50
2018-11-03T16:55:21.227Z,24.33
2018-11-03T16:57:53.469Z,22.93
2018-11-03T17:00:25.795Z,22.10
2018-11-03T17:02:58.166Z,24.20
2018-11-03T17:05:30.591Z,23.90
2018-11-03T17:08:03.038Z,23.50
2018-11-03T17:10:35.387Z,23.53
2018-11-03T17:13:07.782Z,22.43
2018-11-03T17:15:40.011Z,23.17
2018-11-03T17:18:12.313Z,21.37
2018-11-03T17:20:44.724Z,23.30
2018-11-03T17:23:17.012Z,23.50
2018-11-03T17:25:49.415Z,21.97
2018-11-03T17:28:21.994Z,20.90
2018-11-03T17:30:54.529Z,21.40
2018-11-03T17:33:26.901Z,22.00
2018-11-03T17:35:59.485Z,21.43
2018-11-03T17:38:31.845Z,21.17
2018-11-03T17:41:04.245Z,20.17
2018-11-03T17:43:36.738Z,20.80
2018-11-03T17:46:10.007Z,21.23
2018-11-03T17:48:42.494Z,20.50
2018-11-03T17:51:14.890Z,20.23
2018-11-03T17:53:47.232Z,19.33
2018-11-03T17:56:19.779Z,20.67
2018-11-03T17:58:52.230Z,19.53
2018-11-03T18:01:24.905Z,20.37
2018-11-03T18:03:57.394Z,21.47
2018-11-03T18:06:29.700Z,18.80
2018-11-03T18:09:03.111Z,20.47
2018-11-03T18:11:35.324Z,19.80
2018-11-03T18:14:07.576Z,20.03
2018-11-03T18:16:39.905Z,19.30
2018-11-03T18:19:12.388Z,20.70
2018-11-03T18:21:44.809Z,21.03
2018-11-03T18:24:18.630Z,20.73
2018-11-03T18:26:51.022Z,21.77
2018-11-03T18:29:23.434Z,20.30
2018-11-03T18:31:55.871Z,20.83
2018-11-03T18:34:28.514Z,20.20
2018-11-03T18:37:00.819Z,20.93
2018-11-03T18:39:33.178Z,19.60
2018-11-03T18:42:05.526Z,20.97
2018-11-03T18:44:38.078Z,19.27
2018-11-03T18:47:10.942Z,19.90
2018-11-03T18:49:43.494Z,20.23
2018-11-03T18:52:15.747Z,21.93
2018-11-03T18:54:48.100Z,21.57
2018-11-03T18:57:20.430Z,21.50
2018-11-03T18:59:52.764Z,21.43
2018-11-03T19:02:25.555Z,23.20
2018-11-03T19:04:58.262Z,21.67
2018-11-03T19:07:30.565Z,21.07
2018-11-03T19:10:03.112Z,20.07
2018-11-03T19:12:35.647Z,21.63
2018-11-03T19:15:09.404Z,20.70
2018-11-03T19:17:41.748Z,20.90
2018-11-03T19:20:15.856Z,22.60
2018-11-03T19:22:48.308Z,20.17
2018-11-03T19:25:20.680Z,21.07
2018-11-03T19:27:53.032Z,19.30
2018-11-03T19:30:25.412Z,18.90
2018-11-03T19:32:57.739Z,19.97
2018-11-03T19:35:30.092Z,19.70
2018-11-03T19:38:02.554Z,19.50
2018-11-03T19:40:34.932Z,20.07
2018-11-03T19:43:07.241Z,19.00
2018-11-03T19:45:39.579Z,21.60
2018-11-03T19:48:12.095Z,20.80
2018-11-03T19:50:44.350Z,20.10
2018-11-03T19:53:16.697Z,19.50
2018-11-03T19:55:49.128Z,20.57
2018-11-03T19:58:21.429Z,19.47
2018-11-03T20:00:53.767Z,19.33
2018-11-03T20:03:26.146Z,19.03
2018-11-03T20:05:59.001Z,20.07
2018-11-03T20:08:31.550Z,20.23
2018-11-03T20:11:04.004Z,21.33
2018-11-03T20:13:36.335Z,20.30
2018-11-03T20:16:08.758Z,19.53
2018-11-03T20:18:41.137Z,18.00
2018-11-03T20:21:13.379Z,18.50
2018-11-03T20:23:45.666Z,20.37
2018-11-03T20:26:18.116Z,20.77
2018-11-03T20:28:50.222Z,19.53
2018-11-03T20:31:22.613Z,21.20
2018-11-03T20:33:54.986Z,18.33
2018-11-03T20:36:27.368Z,18.77
2018-11-03T20:38:59.713Z,20.43
2018-11-03T20:41:32.029Z,21.77
2018-11-03T20:46:43.399Z,22.13
2018-11-03T20:49:15.645Z,21.97
2018-11-03T20:51:48.063Z,22.23
2018-11-03T20:54:20.436Z,26.03
2018-11-03T20:56:52.807Z,23.30
2018-11-03T20:59:25.149Z,23.30
2018-11-03T21:01:57.610Z,22.17
2018-11-03T21:04:30.054Z,22.27
2018-11-03T21:07:02.494Z,22.20
2018-11-03T21:09:34.885Z,22.50
2018-11-03T21:12:07.355Z,22.30
2018-11-03T21:14:39.703Z,21.53
2018-11-03T21:17:12.152Z,22.80
2018-11-03T21:19:44.502Z,21.60
2018-11-03T21:22:16.859Z,23.40
2018-11-03T21:24:49.254Z,21.73
2018-11-03T21:27:21.608Z,22.13
2018-11-03T21:29:54.064Z,21.20
2018-11-03T21:32:26.362Z,23.13
2018-11-03T21:34:58.801Z,23.40
2018-11-03T21:37:31.256Z,23.23
2018-11-03T21:40:03.883Z,22.57
2018-11-03T21:42:36.092Z,23.83
2018-11-03T21:45:08.438Z,20.60
2018-11-03T21:47:40.688Z,22.20
2018-11-03T21:50:12.976Z,21.53
2018-11-03T21:52:45.247Z,20.50
2018-11-03T21:55:17.584Z,22.13
2018-11-03T21:57:49.946Z,22.63
2018-11-03T22:00:22.252Z,22.10
2018-11-03T22:02:54.613Z,22.90
2018-11-03T22:05:27.052Z,22.50
2018-11-03T22:07:59.311Z,21.27
2018-11-03T22:10:31.734Z,21.43
2018-11-03T22:13:04.076Z,22.73
2018-11-03T22:15:36.489Z,20.93
2018-11-03T22:18:08.755Z,19.33
2018-11-03T22:20:40.995Z,20.53
2018-11-03T22:23:13.335Z,21.83
2018-11-03T22:25:45.858Z,20.80
2018-11-03T22:28:18.306Z,20.80
2018-11-03T22:30:50.709Z,21.20
2018-11-03T22:33:23.058Z,19.17
2018-11-03T22:35:55.440Z,19.43
2018-11-03T22:38:27.808Z,19.73
2018-11-03T22:41:00.177Z,18.83
2018-11-03T22:43:32.546Z,17.70
2018-11-03T22:46:05.033Z,18.60
2018-11-03T22:48:37.332Z,16.47
2018-11-03T22:51:14.457Z,19.30
2018-11-03T22:53:53.465Z,18.00
2018-11-03T22:56:25.781Z,17.43
2018-11-03T22:58:58.064Z,17.87
2018-11-03T23:01:30.307Z,17.50
2018-11-03T23:04:02.616Z,16.93
2018-11-03T23:06:34.922Z,17.20
2018-11-03T23:09:07.159Z,17.50
2018-11-03T23:11:39.407Z,14.77
2018-11-03T23:14:11.747Z,14.27
2018-11-03T23:16:44.025Z,16.10
2018-11-03T23:19:16.351Z,16.37
2018-11-03T23:21:48.522Z,15.63
2018-11-03T23:24:20.732Z,15.03
2018-11-03T23:26:53.034Z,14.93
2018-11-03T23:29:25.514Z,16.83
2018-11-03T23:31:57.746Z,14.60
2018-11-03T23:34:30.047Z,15.17
2018-11-03T23:37:02.349Z,14.33
2018-11-03T23:39:34.557Z,13.90
2018-11-03T23:42:06.848Z,13.40
2018-11-03T23:44:39.110Z,14.53
2018-11-03T23:47:11.493Z,15.13
2018-11-03T23:49:43.787Z,13.77
2018-11-03T23:52:20.708Z,14.67
2018-11-03T23:54:52.993Z,13.10
2018-11-03T23:57:25.341Z,14.23
2018-11-03T23:59:57.769Z,12.70
